Latest Weather Observations for Goulburn Airport

IDN60801

Issued at 3:05 am EDT Saturday 1 November 2014 (issued every 30 minutes, with the page automatically refreshed every 10 minutes)

About weather observations | Map of weather stations | Latest weather observations for NSW | Other Formats
Station Details ID: 070330 Name: GOULBURN AIRPORT AWS Lat: -34.81 Lon: 149.73 Height: 640.0 m
Data from the previous 72 hours. | See also: Recent months at Goulburn Airport
Date/Time
EDT
Temp
°C
App
Temp
°C
Dew
Point
Rel
Hum
%
Delta-T
°C
Wind Press
QNH
hPa
Press
MSL
hPa
Rain
since 9 am
mm
Dir
 
Spd
km/h
Gust
km/h
Spd
kts
Gust
kts
01/02:00am 17.2 13.0 5.8 47 5.7 N 17 20 9 11 1007.7 1006.9 0.0
01/01:30am 17.2 13.0 5.5 46 5.8 N 17 20 9 11 1008.1 1007.3 0.0
01/01:00am 15.9 13.1 7.1 56 4.5 N 11 13 6 7 1008.3 1007.4 0.0
01/12:30am 16.5 13.6 6.6 52 5.0 N 11 13 6 7 1008.7 1007.8 0.0
01/12:00am 18.6 14.3 6.8 46 6.1 NW 19 24 10 13 1008.6 1007.7 0.0
 
Date/Time
EDT
Temp
°C
App
Temp
°C
Dew
Point
Rel
Hum
%
Delta-T
°C
Wind Press
QNH
hPa
Press
MSL
hPa
Rain
since 9 am
mm
Dir
 
Spd
km/h
Gust
km/h
Spd
kts
Gust
kts
31/11:30pm 16.4 14.3 5.7 49 5.3 NNW 6 9 3 5 1008.3 1007.4 0.0
31/11:00pm 17.8 15.1 5.7 45 6.1 N 9 15 5 8 1008.5 1007.6 0.0
31/10:30pm 18.5 16.3 6.4 45 6.2 NNE 7 11 4 6 1008.8 1008.0 0.0
31/10:00pm 14.8 13.9 7.8 63 3.6 ENE 2 9 1 5 1009.1 1008.3 0.0
31/09:30pm 16.1 15.0 8.3 60 4.1 NNE 4 7 2 4 1009.1 1008.3 0.0
31/09:00pm 14.9 14.4 7.9 63 3.6 CALM 0 0 0 0 1009.1 1008.3 0.0
31/08:30pm 16.6 14.8 7.0 53 4.9 S 6 7 3 4 1009.1 1008.3 0.0
31/08:00pm 16.3 14.3 6.2 51 5.1 SW 6 7 3 4 1009.1 1008.3 0.0
31/07:59pm 16.6 14.6 6.4 51 5.2 SW 6 7 3 4 1009.1 1008.3 0.0
31/07:30pm 21.7 20.2 5.2 34 8.4 N 2 6 1 3 1009.1 1008.3 0.0
31/07:00pm 24.3 21.2 5.6 30 9.8 N 11 13 6 7 1009.0 1008.2 0.0
31/06:30pm 26.7 22.5 5.6 26 11.2 N 17 22 9 12 1009.1 1008.3 0.0
31/06:00pm 27.6 22.9 5.2 24 11.9 N 19 22 10 12 1009.3 1008.5 0.0
31/05:30pm 27.1 21.4 2.9 21 12.3 NNW 22 30 12 16 1009.3 1008.5 0.0
31/05:00pm 27.5 21.6 3.9 22 12.3 NNW 24 35 13 19 1009.4 1008.6 0.0
31/04:30pm 28.4 21.1 2.6 19 13.1 NNW 30 41 16 22 1009.4 1008.6 0.0
31/04:00pm 27.9 21.1 2.9 20 12.8 NNW 28 37 15 20 1009.6 1008.8 0.0
31/03:37pm 28.8 20.9 1.3 17 13.7 NW 32 37 17 20 1009.9 1009.0 0.0
31/03:34pm 29.0 19.8 1.5 17 13.8 W 39 54 21 29 1009.7 1008.9 0.0
31/03:30pm 29.1 21.8 2.4 18 13.6 NW 30 48 16 26 1010.0 1009.1 0.0
31/03:12pm 29.1 21.5 0.7 16 14.1 NW 30 52 16 28 1010.3 1009.5 0.0
31/03:00pm 28.9 22.8 3.0 19 13.4 NW 24 37 13 20 1010.5 1009.7 0.0
31/02:30pm 28.1 20.5 3.7 21 12.6 W 33 43 18 23 1011.0 1010.2 0.0
31/02:11pm 28.5 21.6 2.7 19 13.2 NW 28 48 15 26 1011.6 1010.8 0.0
31/02:00pm 28.3 20.6 2.5 19 13.1 NW 32 46 17 25 1011.7 1010.9 0.0
31/01:34pm 28.7 20.9 2.8 19 13.3 NW 33 52 18 28 1011.9 1011.1 0.0
31/01:30pm 28.5 20.6 4.1 21 12.8 NNW 35 52 19 28 1012.1 1011.3 0.0
31/01:23pm 28.3 20.4 2.5 19 13.1 NW 33 52 18 28 1012.0 1011.2 0.0
31/01:00pm 28.3 20.7 3.9 21 12.7 NW 33 46 18 25 1012.4 1011.6 0.0
31/12:30pm 28.1 19.7 1.6 18 13.2 WNW 35 50 19 27 1012.6 1011.8 0.0
31/12:00pm 28.0 19.5 3.0 20 12.8 WNW 37 48 20 26 1013.0 1012.3 0.0
31/11:30am 27.6 20.4 5.2 24 11.9 NW 32 43 17 23 1013.5 1012.7 0.0
31/11:07am 27.5 20.8 3.9 22 12.2 NW 28 46 15 25 1013.8 1013.0 0.0
31/11:00am 27.7 20.6 5.3 24 11.9 NW 32 44 17 24 1014.0 1013.2 0.0
31/10:30am 26.4 19.2 4.8 25 11.3 NW 32 44 17 24 1014.3 1013.6 0.0
31/10:09am 25.6 19.3 5.8 28 10.5 NW 28 37 15 20 1014.5 1013.8 0.0
31/10:00am 23.4 21.8 8.7 39 8.1 NNE 7 11 4 6 1014.6 1013.9 0.0
31/09:30am 20.7 20.5 9.0 47 6.4 E 0 0 0 0 1015.1 1014.3 0.0
31/09:00am 17.0 16.2 8.2 56 4.6 E 2 6 1 3 1015.3 1014.5 0.0
31/08:30am 13.3 12.7 7.3 67 3.0 CALM 0 0 0 0 1015.5 1014.8 0.0
31/08:00am 10.6 9.1 6.6 76 2.0 SE 4 6 2 3 1015.2 1014.4 0.0
31/07:30am 7.6 6.6 5.4 86 1.0 CALM 0 0 0 0 1015.1 1014.3 0.0
31/07:00am 5.8 4.7 4.9 94 0.4 CALM 0 0 0 0 1014.7 1014.0 0.0
31/06:30am 2.9 1.3 2.2 95 0.3 CALM 0 0 0 0 1014.5 1013.8 0.0
31/06:00am 2.1 0.3 1.2 94 0.4 CALM 0 0 0 0 1014.4 1013.7 0.0
31/05:30am 2.7 1.0 2.0 95 0.3 CALM 0 0 0 0 1014.2 1013.5 0.0
31/05:00am 2.6 0.9 1.7 94 0.4 CALM 0 0 0 0 1014.1 1013.4 0.0
31/04:30am 2.7 1.0 1.7 93 0.4 CALM 0 0 0 0 1014.2 1013.5 0.0
31/04:00am 3.2 1.6 2.2 93 0.4 CALM 0 0 0 0 1014.5 1013.8 0.0
31/03:30am 3.4 1.8 2.2 92 0.5 CALM 0 0 0 0 1014.7 1014.0 0.0
31/03:00am 3.9 2.4 2.9 93 0.4 CALM 0 0 0 0 1015.0 1014.2 0.0
31/02:30am 4.1 1.8 2.9 92 0.5 ESE 4 6 2 3 1015.3 1014.5 0.0
31/02:00am 4.6 1.4 3.3 91 0.6 S 9 11 5 6 1015.4 1014.6 0.0
31/01:30am 5.0 3.5 3.2 88 0.8 CALM 0 0 0 0 1015.6 1014.9 0.0
31/01:00am 5.4 2.8 3.3 86 0.9 E 6 9 3 5 1015.9 1015.2 0.0
31/12:30am 5.8 2.7 3.8 87 0.9 SE 9 13 5 7 1016.2 1015.5 0.0
31/12:00am 6.8 4.3 5.0 88 0.8 SSE 7 13 4 7 1016.0 1015.3 0.0
 
Date/Time
EDT
Temp
°C
App
Temp
°C
Dew
Point
Rel
Hum
%
Delta-T
°C
Wind Press
QNH
hPa
Press
MSL
hPa
Rain
since 9 am
mm
Dir
 
Spd
km/h
Gust
km/h
Spd
kts
Gust
kts
30/11:30pm 6.6 3.7 4.4 86 1.0 ESE 9 11 5 6 1016.0 1015.3 0.0
30/11:00pm 7.8 6.1 5.9 88 0.9 SE 4 9 2 5 1016.0 1015.3 0.0
30/10:30pm 8.8 7.8 5.5 80 1.5 CALM 0 0 0 0 1015.9 1015.2 0.0
30/10:00pm 9.4 8.6 6.3 81 1.5 CALM 0 0 0 0 1015.8 1015.1 0.0
30/09:30pm 9.5 8.6 5.9 78 1.7 CALM 0 0 0 0 1015.7 1015.0 0.0
30/09:00pm 9.7 8.9 6.4 80 1.6 CALM 0 0 0 0 1015.4 1014.6 0.0
30/08:30pm 12.0 11.2 6.5 69 2.7 CALM 0 0 0 0 1015.2 1014.4 0.0
30/08:00pm 13.0 10.9 5.9 62 3.5 WSW 6 7 3 4 1014.9 1014.1 0.0
30/07:56pm 12.5 10.4 5.9 64 3.2 WSW 6 7 3 4 1014.7 1014.0 0.0
30/07:30pm 17.6 15.2 5.2 44 6.2 WSW 7 9 4 5 1014.5 1013.8 0.0
30/07:00pm 21.3 18.1 5.2 35 8.2 WSW 11 15 6 8 1014.1 1013.4 0.0
30/06:30pm 23.0 18.9 4.5 30 9.4 W 15 20 8 11 1014.0 1013.2 0.0
30/06:00pm 23.9 18.7 5.3 30 9.7 W 22 30 12 16 1013.8 1013.0 0.0
30/05:30pm 24.3 18.4 4.1 27 10.3 WNW 24 32 13 17 1013.8 1013.0 0.0
30/05:00pm 24.4 18.1 3.7 26 10.5 WNW 26 35 14 19 1013.7 1012.9 0.0
30/04:30pm 24.3 16.6 2.5 24 10.8 W 32 44 17 24 1013.8 1013.0 0.0
30/04:00pm 24.4 17.8 4.2 27 10.3 W 28 39 15 21 1013.8 1013.0 0.0
30/03:30pm 24.4 17.2 3.1 25 10.7 W 30 43 16 23 1014.1 1013.4 0.0
30/03:00pm 23.8 15.5 2.0 24 10.7 W 35 46 19 25 1014.5 1013.8 0.0
30/02:30pm 23.7 16.5 3.1 26 10.3 WNW 30 41 16 22 1014.9 1014.1 0.0
30/02:00pm 23.6 17.4 6.0 32 9.2 W 28 44 15 24 1015.1 1014.3 0.0
30/01:30pm 23.5 16.4 5.4 31 9.4 W 32 44 17 24 1015.4 1014.6 0.0
30/01:02pm 22.4 15.3 3.5 29 9.4 W 30 50 16 27 1015.5 1014.8 0.0
30/01:00pm 22.8 16.3 4.8 31 9.2 W 28 39 15 21 1015.6 1014.9 0.0
30/12:30pm 22.4 16.1 5.8 34 8.6 WSW 28 43 15 23 1015.8 1015.1 0.0
30/12:00pm 21.3 15.3 7.2 40 7.5 WNW 28 37 15 20 1016.2 1015.5 0.0
30/11:30am 20.2 13.7 6.5 41 7.1 WNW 30 41 16 22 1016.6 1015.8 0.0
30/11:00am 19.2 12.6 6.0 42 6.7 WNW 30 39 16 21 1016.4 1015.7 0.0
30/10:30am 19.3 13.2 6.4 43 6.7 W 28 35 15 19 1016.3 1015.6 0.0
30/10:00am 19.1 11.9 5.2 40 7.0 W 32 41 17 22 1016.8 1016.0 0.0
30/09:30am 18.0 13.0 8.0 52 5.3 W 24 30 13 16 1016.6 1015.8 0.0
30/09:00am 15.6 11.3 7.9 60 4.0 WNW 20 26 11 14 1016.6 1015.8 0.0
30/08:30am 13.8 9.4 6.7 62 3.6 WNW 19 24 10 13 1016.8 1016.0 0.0
30/08:00am 11.7 7.2 6.2 69 2.7 WNW 19 22 10 12 1016.7 1015.9 0.0
30/07:30am 10.0 5.2 5.6 74 2.1 WNW 20 22 11 12 1016.6 1015.8 0.0
30/07:00am 8.5 5.1 7.7 95 0.4 NW 15 19 8 10 1016.3 1015.6 0.0
30/06:57am 7.9 5.2 7.5 97 0.2 NNW 11 19 6 10 1016.3 1015.6 0.0
30/06:30am 2.8 0.8 2.2 96 0.2 S 2 7 1 4 1016.2 1015.5 0.0
30/06:00am 2.0 0.2 1.4 96 0.2 CALM 0 0 0 0 1015.9 1015.2 0.0
30/05:30am 2.4 0.7 1.8 96 0.2 CALM 0 0 0 0 1015.8 1015.1 0.0
30/05:00am 2.5 0.8 1.9 96 0.2 CALM 0 0 0 0 1015.7 1015.0 0.0
30/04:30am 2.2 -0.7 1.5 95 0.3 E 6 6 3 3 1015.7 1015.0 0.0
30/04:00am 2.6 -0.2 1.9 95 0.3 ESE 6 7 3 4 1015.7 1015.0 0.0
30/03:30am 2.6 0.9 1.7 94 0.4 CALM 0 0 0 0 1015.7 1015.0 0.0
30/03:00am 3.7 2.2 3.0 95 0.3 CALM 0 0 0 0 1015.8 1015.1 0.0
30/02:30am 4.2 2.8 3.5 95 0.3 CALM 0 0 0 0 1016.0 1015.3 0.0
30/02:00am 4.2 2.7 3.2 93 0.4 CALM 0 0 0 0 1016.2 1015.5 0.0
30/01:30am 4.8 3.4 3.8 93 0.4 CALM 0 0 0 0 1016.7 1015.9 0.0
30/01:00am 5.2 3.8 3.7 90 0.7 CALM 0 0 0 0 1016.9 1016.2 0.0
30/12:30am 5.8 4.6 4.6 92 0.5 CALM 0 0 0 0 1017.1 1016.4 0.0
30/12:00am 5.7 3.2 4.0 89 0.7 SSW 6 9 3 5 1017.1 1016.4 0.0
 
Date/Time
EDT
Temp
°C
App
Temp
°C
Dew
Point
Rel
Hum
%
Delta-T
°C
Wind Press
QNH
hPa
Press
MSL
hPa
Rain
since 9 am
mm
Dir
 
Spd
km/h
Gust
km/h
Spd
kts
Gust
kts
29/11:30pm 6.3 3.9 4.3 87 0.9 SE 6 7 3 4 1017.2 1016.5 0.0
29/11:00pm 7.1 5.8 4.2 82 1.3 CALM 0 0 0 0 1017.2 1016.5 0.0
29/10:30pm 9.3 7.1 5.5 77 1.8 SSE 6 7 3 4 1017.2 1016.5 0.0
29/10:00pm 10.1 8.8 5.9 75 2.0 SSE 2 7 1 4 1017.0 1016.3 0.0
29/09:30pm 13.3 11.9 5.5 59 3.8 WSW 2 9 1 5 1017.0 1016.3 0.0
29/09:00pm 15.1 11.9 5.3 52 4.8 NW 11 15 6 8 1016.8 1016.0 0.0
29/08:30pm 15.3 12.6 5.8 53 4.7 NNW 9 9 5 5 1016.6 1015.8 0.0
29/08:00pm 16.1 13.0 5.7 50 5.2 NW 11 15 6 8 1016.3 1015.6 0.0
29/07:30pm 16.9 13.1 5.8 48 5.6 NW 15 17 8 9 1016.0 1015.3 0.0
29/07:00pm 19.2 15.5 6.3 43 6.6 WNW 15 17 8 9 1015.7 1015.0 0.0
29/06:30pm 20.5 14.9 5.3 37 7.7 W 24 33 13 18 1015.5 1014.8 0.0
29/06:00pm 21.4 15.8 5.3 35 8.2 WNW 24 35 13 19 1015.3 1014.5 0.0
29/05:30pm 21.7 15.3 5.2 34 8.4 W 28 37 15 20 1015.3 1014.5 0.0
29/05:00pm 22.1 16.5 5.5 34 8.6 WNW 24 33 13 18 1015.2 1014.4 0.0
29/04:30pm 22.1 16.6 5.9 35 8.4 W 24 35 13 19 1015.4 1014.6 0.0
29/04:00pm 22.2 16.3 6.0 35 8.4 W 26 35 14 19 1015.5 1014.8 0.0
29/03:30pm 22.0 17.6 7.4 39 7.8 W 20 35 11 19 1015.8 1015.1 0.0
29/03:00pm 21.4 15.9 6.1 37 7.9 W 24 30 13 16 1016.1 1015.4 0.0
29/02:30pm 21.4 15.7 6.5 38 7.8 W 26 41 14 22 1016.4 1015.7 0.0
29/02:00pm 21.1 16.0 7.7 42 7.2 W 24 35 13 19 1016.8 1016.0 0.0
29/01:30pm 21.0 16.0 8.0 43 7.0 W 24 32 13 17 1017.0 1016.3 0.0
29/01:00pm 19.9 14.9 6.6 42 6.9 W 22 32 12 17 1017.2 1016.5 0.0
29/12:30pm 19.3 13.5 6.1 42 6.8 W 26 37 14 20 1017.5 1016.8 0.0
29/12:00pm 18.9 13.4 5.7 42 6.7 W 24 32 13 17 1017.9 1017.2 0.0
29/11:30am 18.0 12.7 6.8 48 5.8 W 24 33 13 18 1018.1 1017.4 0.0
29/11:00am 17.6 12.1 7.4 51 5.3 WNW 26 35 14 19 1018.4 1017.7 0.0
29/10:30am 17.0 11.2 6.2 49 5.5 W 26 39 14 21 1018.6 1017.9 0.0
29/10:00am 16.4 10.9 5.7 49 5.3 W 24 32 13 17 1018.6 1017.9 0.0
29/09:30am 15.9 10.4 6.1 52 4.9 W 24 33 13 18 1018.5 1017.8 0.0
29/09:00am 15.5 9.9 7.0 57 4.3 W 26 35 14 19 1018.1 1017.4 0.0
29/08:30am 14.3 8.6 6.6 60 3.9 W 26 35 14 19 1017.9 1017.2 0.0
29/08:00am 12.8 8.3 7.0 68 2.9 WNW 20 30 11 16 1017.9 1017.2 0.0
29/07:30am 11.5 8.6 6.6 72 2.4 WNW 11 15 6 8 1017.7 1017.0 0.0
29/07:00am 10.4 6.7 6.2 75 2.0 WNW 15 20 8 11 1017.5 1016.8 0.0
29/06:30am 9.2 4.0 5.6 78 1.7 WNW 22 26 12 14 1017.1 1016.4 0.0
29/06:00am 8.3 3.9 4.9 79 1.6 WNW 17 19 9 10 1016.7 1015.9 0.0
29/05:30am 9.4 4.6 5.4 76 1.9 WNW 20 24 11 13 1016.4 1015.7 0.0
29/05:00am 9.5 4.7 5.7 77 1.8 WNW 20 28 11 15 1016.1 1015.4 0.0
29/04:30am 6.6 3.9 3.9 83 1.2 W 7 9 4 5 1016.1 1015.4 0.0
29/04:00am 7.8 4.1 4.6 80 1.5 WNW 13 17 7 9 1015.8 1015.1 0.0
29/03:30am 7.9 5.6 4.7 80 1.5 NW 6 9 3 5 1015.6 1014.9 0.0

Other Formats:

Comma delimited format used in spreadsheet applications
http://www.bom.gov.au/fwo/IDN60801/IDN60801.95716.axf

JavaScript Object Notation format (JSON) in row-major order
http://www.bom.gov.au/fwo/IDN60801/IDN60801.95716.json